Time;durP1;ratioP1;P1;durP2;ratioP2;P2;SDS_P1;SDS_P2;PMS_P1;PMS_P2;Temp;Humidity;BMP_temperature;BMP_pressure;BME280_temperature;BME280_humidity;BME280_pressure;Samples;Min_cycle;Max_cycle;Signal;HPM_P1;HPM_P2
2021/10/13 00:00:52;;;;;;;7.30;1.30;;;8.40;99.90;;;;;;5022205;28;20072;-66
2021/10/13 00:03:18;;;;;;;8.65;0.75;;;8.40;99.90;;;;;;5021007;28;20148;-66
2021/10/13 00:05:43;;;;;;;8.32;0.70;;;8.50;99.90;;;;;;5021565;28;20172;-66
2021/10/13 00:08:09;;;;;;;4.07;0.85;;;8.60;99.90;;;;;;5019975;28;20502;-66
2021/10/13 00:10:34;;;;;;;6.47;1.23;;;8.60;99.90;;;;;;5027685;28;20033;-66
2021/10/13 00:13:00;;;;;;;7.75;0.80;;;8.60;99.90;;;;;;5040080;28;20400;-66
2021/10/13 00:15:25;;;;;;;8.00;0.90;;;8.70;99.90;;;;;;5023192;28;20056;-66
2021/10/13 00:17:51;;;;;;;3.97;0.63;;;8.70;99.90;;;;;;5019238;28;20045;-66
2021/10/13 00:20:17;;;;;;;4.65;0.93;;;8.80;99.90;;;;;;5023095;28;20095;-66
2021/10/13 00:22:42;;;;;;;5.57;1.02;;;8.80;99.90;;;;;;5024232;28;20049;-66
2021/10/13 00:25:08;;;;;;;9.50;0.90;;;8.90;99.90;;;;;;5021906;28;20051;-66
2021/10/13 00:27:33;;;;;;;11.02;1.13;;;8.90;99.90;;;;;;5023498;28;20045;-67
2021/10/13 00:29:59;;;;;;;9.25;0.88;;;8.90;99.90;;;;;;5023523;28;20036;-66
2021/10/13 00:32:25;;;;;;;9.73;1.85;;;8.90;99.90;;;;;;5019473;28;20029;-66
2021/10/13 00:34:50;;;;;;;7.45;0.63;;;9.00;99.90;;;;;;5021246;28;20088;-66
2021/10/13 00:37:16;;;;;;;3.70;0.68;;;9.00;99.90;;;;;;5023057;28;20085;-66
2021/10/13 00:39:42;;;;;;;5.88;0.70;;;9.00;99.90;;;;;;5021063;28;20497;-66
2021/10/13 00:42:07;;;;;;;6.07;0.82;;;9.10;99.90;;;;;;5019856;28;20034;-66
2021/10/13 00:44:33;;;;;;;9.07;1.23;;;9.10;99.90;;;;;;5021616;28;20124;-66
2021/10/13 00:47:00;;;;;;;5.28;0.40;;;9.10;99.90;;;;;;5024082;28;20077;-66
2021/10/13 00:49:26;;;;;;;6.63;0.70;;;9.10;99.90;;;;;;5022839;28;20521;-66
2021/10/13 00:51:52;;;;;;;6.63;0.70;;;9.10;99.90;;;;;;5023634;28;20030;-66
2021/10/13 00:54:19;;;;;;;5.93;0.57;;;9.10;99.90;;;;;;5024592;28;20045;-66
2021/10/13 00:56:44;;;;;;;2.95;0.85;;;9.00;99.90;;;;;;5022120;28;20041;-66
2021/10/13 00:59:10;;;;;;;8.18;1.50;;;9.00;99.90;;;;;;5024463;28;20040;-66
2021/10/13 01:01:47;;;;;;;4.07;0.80;;;8.90;99.90;;;;;;5020312;28;20033;-66
2021/10/13 01:04:31;;;;;;;5.43;1.17;;;8.80;99.90;;;;;;5023433;28;20128;-66
2021/10/13 01:07:28;;;;;;;4.57;0.55;;;8.70;99.90;;;;;;5017899;28;20136;-66
2021/10/13 01:09:56;;;;;;;6.18;0.55;;;8.70;99.90;;;;;;5014991;28;20480;-66
2021/10/13 01:12:22;;;;;;;4.03;0.60;;;8.70;99.90;;;;;;5019183;28;20050;-66
2021/10/13 01:15:08;;;;;;;6.82;0.85;;;8.60;99.90;;;;;;5019879;28;20046;-66
2021/10/13 01:17:43;;;;;;;12.52;1.23;;;8.70;99.90;;;;;;5021107;28;20037;-66
2021/10/13 01:20:48;;;;;;;6.18;0.68;;;8.70;99.90;;;;;;5019522;28;20034;-66
2021/10/13 01:23:40;;;;;;;7.85;0.65;;;8.70;99.90;;;;;;4980182;28;20048;-66
2021/10/13 01:26:20;;;;;;;4.38;0.60;;;8.70;99.90;;;;;;5035215;28;20060;-66
2021/10/13 01:28:49;;;;;;;5.47;0.68;;;8.70;99.90;;;;;;5019733;28;20518;-66
2021/10/13 01:31:24;;;;;;;5.07;1.15;;;8.70;99.90;;;;;;5018262;28;20056;-66
2021/10/13 01:33:59;;;;;;;9.60;1.05;;;8.70;99.90;;;;;;5017856;28;20042;-66
2021/10/13 01:36:36;;;;;;;5.20;0.73;;;8.80;99.90;;;;;;5019017;28;20079;-66
2021/10/13 01:39:03;;;;;;;7.05;0.80;;;8.80;99.90;;;;;;5024114;28;20038;-66
2021/10/13 01:41:29;;;;;;;8.77;1.27;;;8.80;99.90;;;;;;5025281;28;20080;-66
2021/10/13 01:43:56;;;;;;;8.50;0.70;;;8.80;99.90;;;;;;5029403;28;20105;-66
2021/10/13 01:46:23;;;;;;;5.32;0.93;;;8.90;99.90;;;;;;5028658;28;20033;-67
2021/10/13 01:48:51;;;;;;;6.43;0.77;;;8.90;99.90;;;;;;5025610;28;20099;-66
2021/10/13 01:51:18;;;;;;;5.97;0.73;;;8.90;99.90;;;;;;5044516;28;20045;-66
2021/10/13 01:53:45;;;;;;;6.15;0.80;;;8.90;99.90;;;;;;5027624;28;20084;-66
2021/10/13 01:56:13;;;;;;;9.40;1.20;;;8.80;99.90;;;;;;5028682;28;20558;-66
2021/10/13 01:58:41;;;;;;;7.50;1.58;;;8.90;99.90;;;;;;5028428;28;20053;-66
2021/10/13 02:01:10;;;;;;;13.00;0.90;;;8.80;99.90;;;;;;5027562;28;20130;-66
2021/10/13 02:03:37;;;;;;;3.95;0.60;;;8.80;99.90;;;;;;5026673;28;20095;-66
2021/10/13 02:06:05;;;;;;;7.60;0.70;;;8.80;99.90;;;;;;5028201;28;20048;-66
2021/10/13 02:08:33;;;;;;;9.48;0.93;;;8.90;99.90;;;;;;5027224;28;20420;-66
2021/10/13 02:11:03;;;;;;;6.03;1.23;;;8.80;99.90;;;;;;5028502;28;20712;-66
2021/10/13 02:13:32;;;;;;;6.80;1.08;;;8.90;99.90;;;;;;5029983;28;20384;-66
2021/10/13 02:15:59;;;;;;;4.38;0.68;;;8.80;99.90;;;;;;5029921;28;20045;-66
2021/10/13 02:18:27;;;;;;;8.57;1.15;;;8.90;99.90;;;;;;5028495;28;20041;-66
2021/10/13 02:20:55;;;;;;;12.98;1.88;;;8.90;99.90;;;;;;5027079;28;20077;-66
2021/10/13 02:23:23;;;;;;;7.30;1.30;;;8.90;99.90;;;;;;5030045;28;20400;-66
2021/10/13 02:25:52;;;;;;;10.73;1.00;;;8.90;99.90;;;;;;5028553;28;20095;-66
2021/10/13 02:28:25;;;;;;;8.52;1.05;;;8.90;99.90;;;;;;5027549;28;20080;-65
2021/10/13 02:30:51;;;;;;;5.95;0.75;;;9.00;99.90;;;;;;5030693;28;20033;-66
2021/10/13 02:33:17;;;;;;;5.18;0.80;;;8.90;99.90;;;;;;5027979;28;20049;-66
2021/10/13 02:35:43;;;;;;;7.07;1.00;;;9.00;99.90;;;;;;5027953;28;20054;-66
2021/10/13 02:38:09;;;;;;;12.18;1.75;;;9.00;99.90;;;;;;5041349;28;20088;-66
2021/10/13 02:40:35;;;;;;;7.45;1.70;;;9.00;99.90;;;;;;5026155;28;20499;-66
2021/10/13 02:43:00;;;;;;;6.82;0.60;;;9.00;99.90;;;;;;5040990;28;20038;-66
2021/10/13 02:45:29;;;;;;;8.13;0.98;;;9.00;99.90;;;;;;5028140;28;20400;-66
2021/10/13 02:48:00;;;;;;;8.57;1.83;;;9.00;99.90;;;;;;5025769;28;20095;-66
2021/10/13 02:50:41;;;;;;;10.15;1.30;;;9.00;99.90;;;;;;5026479;28;20492;-66
2021/10/13 02:53:25;;;;;;;6.25;1.00;;;9.00;99.90;;;;;;5027420;28;20400;-66
2021/10/13 02:56:22;;;;;;;8.80;1.30;;;9.00;99.90;;;;;;5027741;28;20437;-66
2021/10/13 02:59:11;;;;;;;5.93;0.73;;;9.00;99.90;;;;;;5013004;28;20492;-66
2021/10/13 03:01:42;;;;;;;4.43;0.80;;;8.90;99.90;;;;;;5027296;28;20496;-66
2021/10/13 03:04:20;;;;;;;5.97;1.15;;;8.90;99.90;;;;;;5018667;28;20041;-66
2021/10/13 03:06:57;;;;;;;5.68;0.73;;;8.80;99.90;;;;;;5024085;28;20052;-66
2021/10/13 03:09:25;;;;;;;6.82;0.88;;;8.80;99.90;;;;;;5025216;28;20187;-66
2021/10/13 03:11:52;;;;;;;5.07;0.70;;;8.90;99.90;;;;;;5026509;28;20479;-66
2021/10/13 03:14:23;;;;;;;6.47;0.65;;;8.80;99.90;;;;;;5024239;28;20403;-66
2021/10/13 03:16:51;;;;;;;8.18;1.20;;;8.90;99.90;;;;;;5026220;28;20037;-65
2021/10/13 03:19:20;;;;;;;5.88;0.77;;;8.90;99.90;;;;;;5022020;28;20042;-66
2021/10/13 03:21:48;;;;;;;4.10;0.60;;;9.00;99.90;;;;;;5020674;28;20038;-66
2021/10/13 03:24:16;;;;;;;5.40;0.77;;;9.00;99.90;;;;;;5040454;28;20033;-66
2021/10/13 03:26:51;;;;;;;4.15;0.60;;;9.00;99.90;;;;;;5023421;28;20042;-66
2021/10/13 03:29:17;;;;;;;6.27;1.13;;;9.00;99.90;;;;;;5022184;28;20489;-66
2021/10/13 03:31:44;;;;;;;5.40;0.63;;;9.00;99.90;;;;;;5020904;28;20045;-66
2021/10/13 03:34:10;;;;;;;4.22;0.63;;;9.00;99.90;;;;;;5019095;28;20033;-66
2021/10/13 03:36:43;;;;;;;5.88;0.60;;;9.10;99.90;;;;;;5022502;28;20156;-66
2021/10/13 03:39:10;;;;;;;5.20;0.70;;;9.10;99.90;;;;;;5038523;28;20076;-66
2021/10/13 03:41:36;;;;;;;2.75;0.47;;;9.10;99.90;;;;;;5029494;28;20072;-66
2021/10/13 03:44:03;;;;;;;4.00;0.57;;;9.10;99.90;;;;;;5026164;28;20053;-66
2021/10/13 03:46:29;;;;;;;4.47;0.95;;;9.20;99.90;;;;;;5027110;28;20037;-66
2021/10/13 03:48:56;;;;;;;4.95;0.60;;;9.20;99.90;;;;;;5028729;28;20044;-66
2021/10/13 03:51:21;;;;;;;5.25;0.85;;;9.10;99.90;;;;;;5027008;28;20041;-66
2021/10/13 03:53:48;;;;;;;9.75;1.00;;;9.20;99.90;;;;;;5029606;28;20607;-66
2021/10/13 03:56:14;;;;;;;12.48;0.90;;;9.20;99.90;;;;;;5029151;28;20124;-66
2021/10/13 03:58:40;;;;;;;6.38;0.85;;;9.20;99.90;;;;;;5008603;28;20500;-66
2021/10/13 04:01:06;;;;;;;6.57;0.75;;;9.20;99.90;;;;;;5028682;28;20060;-66
2021/10/13 04:03:32;;;;;;;3.88;0.77;;;9.20;99.90;;;;;;5031648;28;20108;-66
2021/10/13 04:05:57;;;;;;;9.38;0.80;;;9.20;99.90;;;;;;5029666;28;20099;-66
2021/10/13 04:08:23;;;;;;;4.78;0.52;;;9.20;99.90;;;;;;5029233;28;20076;-66
2021/10/13 04:10:48;;;;;;;9.23;0.73;;;9.20;99.90;;;;;;5029155;28;20032;-66
2021/10/13 04:13:14;;;;;;;2.90;0.40;;;9.20;99.90;;;;;;5026824;28;20045;-66
2021/10/13 04:15:40;;;;;;;7.57;1.67;;;9.20;99.90;;;;;;5013441;28;20125;-66
2021/10/13 04:18:06;;;;;;;6.30;1.10;;;9.20;99.90;;;;;;5030813;28;20162;-66
2021/10/13 04:20:32;;;;;;;6.10;0.80;;;9.10;99.90;;;;;;5035256;28;20415;-66
2021/10/13 04:22:57;;;;;;;9.35;0.88;;;9.20;99.90;;;;;;5028066;28;20403;-66
2021/10/13 04:25:23;;;;;;;6.82;0.80;;;9.20;99.90;;;;;;5028229;28;20046;-66
2021/10/13 04:27:49;;;;;;;5.07;0.95;;;9.20;99.90;;;;;;5028348;28;20037;-66
2021/10/13 04:30:16;;;;;;;5.63;0.60;;;9.20;99.90;;;;;;5028903;28;20041;-66
2021/10/13 04:32:42;;;;;;;5.88;0.60;;;9.20;99.90;;;;;;5024557;28;20442;-66
2021/10/13 04:35:08;;;;;;;3.08;0.50;;;9.20;99.90;;;;;;5028909;28;20392;-66
2021/10/13 04:37:33;;;;;;;3.75;0.40;;;9.20;99.90;;;;;;5024119;28;20124;-66
2021/10/13 04:39:59;;;;;;;7.85;0.50;;;9.30;99.90;;;;;;5025585;28;20133;-66
2021/10/13 04:42:25;;;;;;;5.25;0.68;;;9.30;99.90;;;;;;5030304;28;20052;-66
2021/10/13 04:44:50;;;;;;;7.45;0.80;;;9.30;99.90;;;;;;5031529;28;20100;-66
2021/10/13 04:47:16;;;;;;;3.75;1.10;;;9.30;99.90;;;;;;5044534;28;20069;-66
2021/10/13 04:49:41;;;;;;;3.33;0.25;;;9.40;99.90;;;;;;5025039;28;20052;-66
2021/10/13 04:52:07;;;;;;;3.30;0.30;;;9.40;99.90;;;;;;5024102;28;20769;-66
2021/10/13 04:54:32;;;;;;;6.65;0.40;;;9.50;99.90;;;;;;5027462;28;20445;-66
2021/10/13 04:56:58;;;;;;;5.05;0.63;;;9.50;99.90;;;;;;5028284;28;20041;-66
2021/10/13 04:59:24;;;;;;;4.78;0.60;;;9.50;99.90;;;;;;5041006;28;20030;-66
2021/10/13 05:01:49;;;;;;;5.78;0.50;;;9.60;99.90;;;;;;5024977;28;20065;-66
2021/10/13 05:04:15;;;;;;;5.88;0.50;;;9.60;99.90;;;;;;5024071;28;20044;-66
2021/10/13 05:06:43;;;;;;;3.83;0.30;;;9.60;99.90;;;;;;5028224;28;20475;-66
2021/10/13 05:09:08;;;;;;;5.43;0.40;;;9.60;99.90;;;;;;5025683;28;20041;-66
2021/10/13 05:11:34;;;;;;;2.50;0.38;;;9.70;99.90;;;;;;5025026;28;20037;-66
2021/10/13 05:13:59;;;;;;;4.53;0.30;;;9.60;99.90;;;;;;5025470;28;20583;-66
2021/10/13 05:16:25;;;;;;;5.10;1.52;;;9.60;99.90;;;;;;5025354;28;20103;-66
2021/10/13 05:18:51;;;;;;;2.20;0.68;;;9.60;99.90;;;;;;5019598;28;20056;-66
2021/10/13 05:21:16;;;;;;;5.07;0.40;;;9.60;99.90;;;;;;5024577;28;20072;-66
2021/10/13 05:23:42;;;;;;;4.70;0.32;;;9.50;99.90;;;;;;5027490;28;20037;-66
2021/10/13 05:26:07;;;;;;;2.35;0.30;;;9.60;99.90;;;;;;5021575;28;20044;-66
2021/10/13 05:28:33;;;;;;;3.67;0.30;;;9.60;99.90;;;;;;5021271;28;20037;-66
2021/10/13 05:30:58;;;;;;;5.75;0.45;;;9.60;99.90;;;;;;5022111;28;20399;-66
2021/10/13 05:33:24;;;;;;;5.22;0.82;;;9.60;99.90;;;;;;5022747;28;20048;-66
2021/10/13 05:35:50;;;;;;;5.55;0.50;;;9.60;99.90;;;;;;5023407;28;20033;-66
2021/10/13 05:38:15;;;;;;;5.50;0.70;;;9.60;99.90;;;;;;5019730;28;20546;-67
2021/10/13 05:40:41;;;;;;;6.78;0.90;;;9.70;99.90;;;;;;5019601;28;20404;-67
2021/10/13 05:43:06;;;;;;;5.57;0.52;;;9.60;99.90;;;;;;5020589;28;20056;-67
2021/10/13 05:45:32;;;;;;;5.13;1.08;;;9.60;99.90;;;;;;5020751;28;20037;-67
2021/10/13 05:47:57;;;;;;;5.82;0.52;;;9.60;99.90;;;;;;5023308;28;20048;-67
2021/10/13 05:50:23;;;;;;;2.92;0.40;;;9.60;99.90;;;;;;5020336;28;20045;-67
2021/10/13 05:52:48;;;;;;;7.47;1.60;;;9.60;99.90;;;;;;5019337;28;20033;-67
2021/10/13 05:55:14;;;;;;;8.15;0.73;;;9.70;99.90;;;;;;5020239;28;20041;-67
2021/10/13 05:57:40;;;;;;;7.55;1.20;;;9.70;99.90;;;;;;5023615;28;20160;-68
2021/10/13 06:00:06;;;;;;;4.00;0.57;;;9.60;99.90;;;;;;5020233;28;21528;-67
2021/10/13 06:02:35;;;;;;;4.53;0.60;;;9.70;99.90;;;;;;5021159;28;20111;-67
2021/10/13 06:05:02;;;;;;;5.50;1.40;;;9.60;99.90;;;;;;5021540;28;20064;-67
2021/10/13 06:07:28;;;;;;;6.40;1.20;;;9.70;99.90;;;;;;5021596;28;20106;-68
2021/10/13 06:09:53;;;;;;;2.97;0.50;;;9.70;99.90;;;;;;5024123;28;20126;-67
2021/10/13 06:12:19;;;;;;;3.13;0.40;;;9.70;99.90;;;;;;5022167;28;20044;-67
2021/10/13 06:14:44;;;;;;;4.63;0.60;;;9.70;99.90;;;;;;5021558;28;20034;-68
2021/10/13 06:17:10;;;;;;;7.80;0.80;;;9.70;99.90;;;;;;5019728;28;20041;-67
2021/10/13 06:19:36;;;;;;;7.97;0.80;;;9.80;99.90;;;;;;5022082;28;20691;-67
2021/10/13 06:22:01;;;;;;;3.70;0.60;;;9.70;99.90;;;;;;5023526;28;20098;-67
2021/10/13 06:24:27;;;;;;;10.95;0.77;;;9.70;99.90;;;;;;5020335;28;20056;-67
2021/10/13 06:26:53;;;;;;;8.02;0.70;;;9.80;99.90;;;;;;5016550;28;20049;-67
2021/10/13 06:29:18;;;;;;;9.98;1.58;;;9.80;99.90;;;;;;5017952;28;20033;-67
2021/10/13 06:31:44;;;;;;;4.88;0.65;;;9.80;99.90;;;;;;5018893;28;20049;-67
2021/10/13 06:34:10;;;;;;;5.63;0.80;;;9.80;99.90;;;;;;5019168;28;20065;-67
2021/10/13 06:36:36;;;;;;;5.05;0.82;;;9.80;99.90;;;;;;5023502;28;20057;-67
2021/10/13 06:39:02;;;;;;;10.55;0.75;;;9.70;99.90;;;;;;5024531;28;21296;-67
2021/10/13 06:41:29;;;;;;;13.50;1.75;;;9.80;99.90;;;;;;5026296;28;20391;-67
2021/10/13 06:43:55;;;;;;;4.38;0.90;;;9.80;99.90;;;;;;5020999;28;20049;-67
2021/10/13 06:46:21;;;;;;;6.75;0.70;;;9.80;99.90;;;;;;5025237;28;20049;-67
2021/10/13 06:48:46;;;;;;;4.03;0.70;;;9.90;99.90;;;;;;5036575;28;20038;-67
2021/10/13 06:51:12;;;;;;;4.63;0.80;;;9.80;99.90;;;;;;5016518;28;20096;-67
2021/10/13 06:53:37;;;;;;;6.22;0.88;;;9.90;99.90;;;;;;5022084;28;20065;-67
2021/10/13 06:56:03;;;;;;;5.47;0.57;;;9.90;99.90;;;;;;5017620;28;20550;-67
2021/10/13 06:58:29;;;;;;;7.32;1.25;;;9.90;99.90;;;;;;5019129;28;20048;-67
2021/10/13 07:00:55;;;;;;;10.77;0.80;;;9.90;99.90;;;;;;5021141;28;20480;-67
2021/10/13 07:03:20;;;;;;;5.15;0.70;;;9.90;99.90;;;;;;5023723;28;20373;-67
2021/10/13 07:05:46;;;;;;;9.75;1.00;;;9.90;99.90;;;;;;5023733;28;20048;-67
2021/10/13 07:08:12;;;;;;;7.72;0.88;;;10.00;99.90;;;;;;5021731;28;20065;-67
2021/10/13 07:10:37;;;;;;;5.20;0.60;;;10.00;99.90;;;;;;5018424;28;20034;-67
2021/10/13 07:13:03;;;;;;;5.68;0.60;;;10.00;99.90;;;;;;5018970;28;20052;-67
2021/10/13 07:15:29;;;;;;;3.10;0.60;;;10.10;99.90;;;;;;5024187;28;20128;-67
2021/10/13 07:17:54;;;;;;;6.53;1.10;;;10.20;99.90;;;;;;5025368;28;22262;-66
2021/10/13 07:20:20;;;;;;;3.05;0.50;;;10.20;99.90;;;;;;5025909;28;20041;-67
2021/10/13 07:22:46;;;;;;;3.10;0.50;;;10.20;99.90;;;;;;5024981;28;20041;-66
2021/10/13 07:25:11;;;;;;;5.25;0.70;;;10.30;99.90;;;;;;5021861;28;20080;-67
2021/10/13 07:27:37;;;;;;;6.07;0.70;;;10.40;99.90;;;;;;5026132;28;20025;-66
2021/10/13 07:30:05;;;;;;;3.88;0.70;;;10.40;99.90;;;;;;5020147;28;20037;-67
2021/10/13 07:32:34;;;;;;;1.50;0.30;;;10.50;99.90;;;;;;5022527;28;20116;-66
2021/10/13 07:35:00;;;;;;;5.15;0.95;;;10.50;99.90;;;;;;5022438;28;20052;-66
2021/10/13 07:37:27;;;;;;;5.35;0.57;;;10.50;99.90;;;;;;5021532;28;20041;-66
2021/10/13 07:39:54;;;;;;;3.25;0.38;;;10.50;99.90;;;;;;5024186;28;20124;-66
2021/10/13 07:42:20;;;;;;;4.25;0.45;;;10.60;99.90;;;;;;5022333;28;20463;-67
2021/10/13 07:44:46;;;;;;;3.97;0.73;;;10.60;99.90;;;;;;5023867;28;20060;-66
2021/10/13 07:47:12;;;;;;;4.03;0.70;;;10.70;99.90;;;;;;5021264;28;20041;-66
2021/10/13 07:49:39;;;;;;;3.90;0.47;;;10.70;99.90;;;;;;5021894;28;20033;-67
2021/10/13 07:52:05;;;;;;;3.08;0.40;;;10.90;99.90;;;;;;5022055;28;20046;-66
2021/10/13 07:54:31;;;;;;;5.93;0.50;;;11.00;99.90;;;;;;5023366;28;20041;-66
2021/10/13 07:56:57;;;;;;;4.47;0.40;;;11.10;99.90;;;;;;5023039;28;20037;-66
2021/10/13 07:59:23;;;;;;;3.03;0.30;;;11.20;99.90;;;;;;5024718;28;20511;-66
2021/10/13 08:01:48;;;;;;;3.65;0.40;;;11.30;99.90;;;;;;5021430;28;20472;-66
2021/10/13 08:04:14;;;;;;;2.97;0.38;;;11.40;99.90;;;;;;5020773;28;20046;-66
2021/10/13 08:06:40;;;;;;;5.20;0.45;;;11.50;99.90;;;;;;5040112;28;20033;-66
2021/10/13 08:09:05;;;;;;;3.33;0.40;;;11.60;99.90;;;;;;5025555;28;20167;-66
2021/10/13 08:11:31;;;;;;;5.22;0.57;;;11.60;99.90;;;;;;5023591;28;20064;-66
2021/10/13 08:13:58;;;;;;;3.20;0.32;;;11.60;99.90;;;;;;5019294;28;20060;-66
2021/10/13 08:16:24;;;;;;;3.45;0.57;;;11.70;99.90;;;;;;5023564;28;20124;-66
2021/10/13 08:18:49;;;;;;;4.78;0.47;;;11.70;99.90;;;;;;5019562;28;20403;-66
2021/10/13 08:21:15;;;;;;;3.25;0.40;;;11.80;99.90;;;;;;5024590;28;20048;-67
2021/10/13 08:23:41;;;;;;;6.68;0.60;;;11.90;99.90;;;;;;5021933;28;20041;-67
2021/10/13 08:26:06;;;;;;;2.60;0.30;;;12.00;99.90;;;;;;5020662;28;21683;-67
2021/10/13 08:28:32;;;;;;;5.20;0.40;;;12.10;99.90;;;;;;5021969;28;20034;-66
2021/10/13 08:30:58;;;;;;;2.35;0.32;;;12.10;99.90;;;;;;5020648;28;20069;-67
2021/10/13 08:33:24;;;;;;;5.72;0.88;;;12.20;99.90;;;;;;5022487;28;20049;-66
2021/10/13 08:35:49;;;;;;;2.85;0.68;;;12.30;99.90;;;;;;5019417;28;20041;-66
2021/10/13 08:38:15;;;;;;;5.22;0.60;;;12.50;99.90;;;;;;5022745;28;20133;-67
2021/10/13 08:40:41;;;;;;;4.03;0.50;;;12.60;99.90;;;;;;5021933;28;20450;-67
2021/10/13 08:43:07;;;;;;;4.95;0.50;;;12.70;99.90;;;;;;5019613;28;20077;-67
2021/10/13 08:45:36;;;;;;;4.25;0.40;;;12.70;99.90;;;;;;5019787;28;20129;-67
2021/10/13 08:48:04;;;;;;;4.78;0.43;;;12.80;99.90;;;;;;5021463;28;20077;-67
2021/10/13 08:50:31;;;;;;;6.90;0.70;;;12.90;99.90;;;;;;5020855;28;20733;-67
2021/10/13 08:53:14;;;;;;;3.47;0.40;;;12.90;99.90;;;;;;5019675;28;20048;-67
2021/10/13 08:55:41;;;;;;;4.57;0.55;;;13.00;99.90;;;;;;5037301;28;20045;-67
2021/10/13 08:58:15;;;;;;;6.25;0.90;;;13.00;99.90;;;;;;5020652;28;20053;-67
2021/10/13 09:00:44;;;;;;;3.88;0.40;;;13.10;99.90;;;;;;5021116;28;20037;-67
2021/10/13 09:03:29;;;;;;;6.00;1.30;;;13.10;99.90;;;;;;5020330;28;20029;-67
2021/10/13 09:05:56;;;;;;;2.88;0.73;;;13.10;99.90;;;;;;5019416;28;20037;-67
2021/10/13 09:08:21;;;;;;;3.28;0.50;;;13.00;99.90;;;;;;5022582;28;20480;-67
2021/10/13 09:10:47;;;;;;;3.78;0.55;;;13.10;99.90;;;;;;5020606;28;20056;-67
2021/10/13 09:13:16;;;;;;;2.65;0.50;;;13.00;99.90;;;;;;5020316;28;20476;-67
2021/10/13 09:15:50;;;;;;;6.65;0.45;;;13.10;99.90;;;;;;5019758;28;20393;-67
2021/10/13 09:18:19;;;;;;;3.25;0.47;;;13.20;99.90;;;;;;5020641;28;20049;-67
2021/10/13 09:20:50;;;;;;;3.90;0.38;;;13.10;99.90;;;;;;5020114;28;20045;-66
2021/10/13 09:23:20;;;;;;;7.63;0.75;;;13.20;99.90;;;;;;5022421;28;20041;-67
2021/10/13 09:26:09;;;;;;;5.82;0.75;;;13.30;99.90;;;;;;5038289;28;20076;-67
2021/10/13 09:28:35;;;;;;;6.40;1.10;;;13.30;99.90;;;;;;5020859;28;20111;-67
2021/10/13 09:31:20;;;;;;;7.05;0.73;;;13.30;99.90;;;;;;5020491;28;20038;-67
2021/10/13 09:33:56;;;;;;;3.95;0.38;;;13.30;99.90;;;;;;5017638;28;20041;-67
2021/10/13 09:36:22;;;;;;;5.30;1.17;;;13.40;99.90;;;;;;5021172;28;20048;-67
2021/10/13 09:38:47;;;;;;;4.57;0.60;;;13.40;99.90;;;;;;5017747;28;20042;-66
2021/10/13 09:41:13;;;;;;;2.95;0.52;;;13.40;99.90;;;;;;5019156;28;20042;-67
2021/10/13 09:43:40;;;;;;;2.92;0.43;;;13.40;99.90;;;;;;5020372;28;20568;-67
2021/10/13 09:46:14;;;;;;;3.35;0.47;;;13.50;99.90;;;;;;5019266;28;20052;-67
2021/10/13 09:48:42;;;;;;;3.22;0.55;;;13.60;99.90;;;;;;5019951;28;20568;-67
2021/10/13 09:51:16;;;;;;;7.43;1.05;;;13.60;99.90;;;;;;5019316;28;21131;-67
2021/10/13 09:53:42;;;;;;;3.92;0.30;;;13.70;99.90;;;;;;5019249;28;20033;-67
2021/10/13 09:56:36;;;;;;;5.28;0.40;;;13.70;99.90;;;;;;5019139;28;20124;-67
2021/10/13 09:59:10;;;;;;;2.28;0.22;;;13.80;99.90;;;;;;5018656;28;20057;-67
2021/10/13 10:01:36;;;;;;;5.30;0.93;;;13.90;99.90;;;;;;5021794;28;20099;-67
2021/10/13 10:04:04;;;;;;;4.45;1.08;;;13.90;99.90;;;;;;5018577;28;20044;-67
2021/10/13 10:06:30;;;;;;;3.35;0.20;;;14.00;99.90;;;;;;5021651;28;20045;-67
2021/10/13 10:08:59;;;;;;;3.85;0.30;;;14.10;99.90;;;;;;5021948;28;20045;-67
2021/10/13 10:11:33;;;;;;;4.05;0.70;;;14.10;99.90;;;;;;5016776;28;20045;-67
2021/10/13 10:14:01;;;;;;;6.93;0.40;;;14.10;99.90;;;;;;5038019;28;20468;-67
2021/10/13 10:16:38;;;;;;;1.92;0.22;;;14.10;99.90;;;;;;5018290;28;20061;-67
2021/10/13 10:19:37;;;;;;;0.75;0.20;;;14.20;99.90;;;;;;5016045;28;20128;-67
2021/10/13 10:22:15;;;;;;;2.90;0.25;;;14.20;99.90;;;;;;5010325;28;20068;-67
2021/10/13 10:24:46;;;;;;;2.20;0.30;;;14.30;99.90;;;;;;5019633;28;20502;-67
2021/10/13 10:27:27;;;;;;;3.40;0.20;;;14.30;99.90;;;;;;5018519;28;20172;-67
2021/10/13 10:30:08;;;;;;;2.47;0.25;;;14.50;99.90;;;;;;5019693;28;20041;-67
2021/10/13 10:32:35;;;;;;;2.75;0.50;;;14.60;99.90;;;;;;5025222;28;20068;-67
2021/10/13 10:35:04;;;;;;;1.17;0.22;;;15.00;99.90;;;;;;5040542;28;20133;-66
2021/10/13 10:37:53;;;;;;;4.95;0.50;;;15.20;99.90;;;;;;5023926;28;20098;-66
2021/10/13 10:40:28;;;;;;;3.15;0.22;;;15.30;99.90;;;;;;5025552;28;20083;-66
2021/10/13 10:43:06;;;;;;;1.38;0.20;;;15.30;99.90;;;;;;5023751;28;20048;-66
2021/10/13 10:45:39;;;;;;;1.55;0.20;;;15.20;99.90;;;;;;5017563;28;20084;-67
2021/10/13 10:48:10;;;;;;;5.32;0.30;;;15.10;99.90;;;;;;5023813;28;20052;-66
2021/10/13 10:50:40;;;;;;;3.97;0.30;;;14.90;99.90;;;;;;5025639;28;20029;-66
2021/10/13 10:53:13;;;;;;;4.13;0.38;;;14.80;99.90;;;;;;5020786;28;20399;-66
2021/10/13 10:55:42;;;;;;;13.15;0.45;;;14.70;99.90;;;;;;5023549;28;21085;-66
2021/10/13 10:58:22;;;;;;;2.95;0.60;;;14.50;99.90;;;;;;5024807;28;20361;-66
2021/10/13 11:01:13;;;;;;;2.05;0.20;;;14.30;99.90;;;;;;5019154;28;20488;-66
2021/10/13 11:03:41;;;;;;;1.27;0.40;;;14.20;99.90;;;;;;5020873;28;20492;-66
2021/10/13 11:06:29;;;;;;;1.98;0.30;;;14.00;99.90;;;;;;5017046;28;20041;-66
2021/10/13 11:09:07;;;;;;;3.72;0.32;;;13.80;99.90;;;;;;5018081;28;20037;-66
2021/10/13 11:11:43;;;;;;;0.73;0.20;;;13.50;99.90;;;;;;5015925;28;20594;-66
2021/10/13 11:14:12;;;;;;;1.45;0.10;;;13.40;99.90;;;;;;5017636;28;20389;-66
2021/10/13 11:16:58;;;;;;;5.53;0.20;;;13.40;99.90;;;;;;5018126;28;20056;-66
2021/10/13 11:19:35;;;;;;;1.13;0.28;;;13.30;99.90;;;;;;5017953;28;20046;-66
2021/10/13 11:22:11;;;;;;;0.90;0.10;;;13.30;99.90;;;;;;5016589;28;20171;-66
2021/10/13 11:24:38;;;;;;;3.97;0.20;;;13.30;99.90;;;;;;5018334;28;20047;-66
2021/10/13 11:27:05;;;;;;;3.45;0.30;;;13.30;99.90;;;;;;5019662;28;20053;-66
2021/10/13 11:29:33;;;;;;;0.90;0.10;;;13.20;99.90;;;;;;5016974;28;20041;-66
2021/10/13 11:32:03;;;;;;;4.00;0.68;;;13.20;99.90;;;;;;5019737;28;20033;-67
2021/10/13 11:34:29;;;;;;;1.08;0.20;;;13.30;99.90;;;;;;5020708;28;20049;-67
2021/10/13 11:36:56;;;;;;;2.00;0.30;;;13.40;99.90;;;;;;5019617;28;20039;-67
2021/10/13 11:39:27;;;;;;;1.63;0.22;;;13.40;99.90;;;;;;5020294;28;20044;-67
2021/10/13 11:41:54;;;;;;;3.13;0.20;;;13.50;99.90;;;;;;5019516;28;20049;-66
2021/10/13 11:44:23;;;;;;;4.22;0.30;;;13.50;99.90;;;;;;5017185;28;20056;-67
2021/10/13 11:47:02;;;;;;;2.55;0.40;;;13.50;99.90;;;;;;5021045;28;20080;-66
2021/10/13 11:49:29;;;;;;;5.15;0.30;;;13.70;99.90;;;;;;5031760;28;20049;-66
2021/10/13 11:52:10;;;;;;;4.15;0.30;;;13.80;99.90;;;;;;5018321;28;20045;-66
2021/10/13 11:54:36;;;;;;;5.10;0.40;;;13.80;99.90;;;;;;5020055;28;20025;-66
2021/10/13 11:57:02;;;;;;;3.10;0.30;;;13.90;99.90;;;;;;5020860;28;20507;-67
2021/10/13 11:59:28;;;;;;;3.05;0.30;;;14.00;99.90;;;;;;5016045;28;20034;-66
2021/10/13 12:01:53;;;;;;;4.25;0.35;;;14.10;99.90;;;;;;5018890;28;20511;-66
2021/10/13 12:04:19;;;;;;;3.10;0.30;;;14.30;99.90;;;;;;5022757;28;20041;-66
2021/10/13 12:06:45;;;;;;;5.57;0.43;;;14.30;99.90;;;;;;5024099;28;20050;-66
2021/10/13 12:09:11;;;;;;;4.07;0.45;;;14.30;99.90;;;;;;5023249;28;20042;-67
2021/10/13 12:11:38;;;;;;;4.88;0.35;;;14.30;99.90;;;;;;5023812;28;20037;-66
2021/10/13 12:14:14;;;;;;;3.28;0.82;;;14.40;99.90;;;;;;5020281;28;20040;-66
2021/10/13 12:16:40;;;;;;;;;;;14.50;99.90;;;;;;5039851;28;20107;-66
2021/10/13 12:19:13;;;;;;;7.55;0.82;;;14.50;99.90;;;;;;5017956;28;19917;-67
2021/10/13 12:21:56;;;;;;;5.80;0.30;;;14.70;99.90;;;;;;5021763;28;20049;-66
2021/10/13 12:24:21;;;;;;;5.80;0.40;;;14.80;99.90;;;;;;5019408;28;20037;-66
2021/10/13 12:26:47;;;;;;;4.60;0.93;;;14.70;99.90;;;;;;5021188;28;20037;-66
2021/10/13 12:29:14;;;;;;;7.10;0.35;;;14.80;99.90;;;;;;5022291;28;20030;-66
2021/10/13 12:31:42;;;;;;;8.73;1.00;;;14.80;99.90;;;;;;5019577;28;20048;-66
2021/10/13 12:34:12;;;;;;;6.25;0.57;;;14.80;99.90;;;;;;5020464;28;20168;-66
2021/10/13 12:36:40;;;;;;;5.78;0.68;;;14.90;99.90;;;;;;5015444;28;20049;-66
2021/10/13 12:39:15;;;;;;;3.90;0.63;;;14.90;99.90;;;;;;5038532;28;20256;-66
2021/10/13 12:41:45;;;;;;;5.88;0.60;;;14.90;99.90;;;;;;5016278;28;20061;-66
2021/10/13 12:44:25;;;;;;;6.38;0.70;;;14.90;99.90;;;;;;5018897;28;20492;-66
2021/10/13 12:47:17;;;;;;;3.92;0.52;;;14.80;99.90;;;;;;5017319;28;20227;-66
2021/10/13 12:49:46;;;;;;;3.40;0.77;;;14.70;99.90;;;;;;5002356;28;20037;-66
2021/10/13 12:52:23;;;;;;;6.00;0.75;;;14.70;99.90;;;;;;5017619;28;20045;-66
2021/10/13 12:54:55;;;;;;;10.70;1.58;;;14.50;99.90;;;;;;5021549;28;20091;-66
2021/10/13 12:57:23;;;;;;;4.38;0.60;;;14.40;99.90;;;;;;5036648;28;20041;-66
2021/10/13 12:59:49;;;;;;;10.05;0.95;;;14.30;99.90;;;;;;5016840;28;20131;-66
2021/10/13 13:02:15;;;;;;;3.75;0.65;;;14.20;99.90;;;;;;5036444;28;20036;-66